Hauptseite
METAR-TAF:

METAR-TAF

Flughäfen :

Flughafen Kota Bharu

Kota Bahru, Malaysia

Breite: 06-10N, Länge: 102-17E, Höhe: 5 m

Beobachtung

Neuester Wetterbericht von vor 28 Minuten, um 19:00 UTC
Wind 4 kt aus Süd/Südwest, variierte zwischen Süd/Südost und West/Südwest
Temperatur 25°C
Luftfeuchtigkeit 89%
Luftdruck 1008 hPa
Sichtweite 10 km oder mehr
Leicht bewölkt in der Höhe von 2000 ft

METAR: WMKC 181900Z 20004KT 150V250 9999 FEW020 25/23 Q1008

Zeit: 03:28 (19:28 UTC)

Prognose

Neuester Wetterbericht von vor 2 Stunden und 28 Minuten, um 17:00 UTC
Gültige Prognose vom 18 um 18 UTC bis 19 um 18 UTC
Wind 4 kt aus Südwest
Sichtweite 10 km oder mehr
Leicht bewölkt in der Höhe von 2000 ft
Zeitweise
vom 19 um 13 UTC bis 19 um 15 UTC
Sichtweite: 7000 m
Leicht bewölkt in der Höhe von 1700 ft, Kumulonimbus.
Gewitter, Leichtregen,

TAF: WMKC 181700Z 1818/1918 22004KT 9999 FEW020 TEMPO 1913/1915 7000 -TSRA FEW017CB

Wetterbeobachtungen und Prognosen von mehr als 4000 Flughäfen (METAR und TAF Bericht).

Die verfügbaren Stationen werden durch gelbe und rote Markierungen auf der Karte dargestellt.

Führen Sie die Maus auf sie, um den Namen der Station zu sehen.

Darauf klicken, um die Beobachtung von Wetterbeobachtungen und Prognosen zu sehen.

Um die Karte zu ändern : klicken Sie auf den grünen Tasten mit einem schwarzen Kreuz Zum Vergrößern, auf den grünen Button mit einem Gedankenstrich zu verkleinern, oder auf die grünen Pfeile für benachbarte Karten.


METAR-TAF: